Time;durP1;ratioP1;P1;durP2;ratioP2;P2;SDS_P1;SDS_P2;PMS_P1;PMS_P2;Temp;Humidity;BMP_temperature;BMP_pressure;BME280_temperature;BME280_humidity;BME280_pressure;Samples;Min_cycle;Max_cycle;Signal;HPM_P1;HPM_P2
2022/04/13 00:06:58;;;;;;;;;;;11.40;73.90;;;;;;20679113;28;20304;-62
2022/04/13 00:17:00;;;;;;;;;;;11.20;74.70;;;;;;20677675;28;19922;-63
2022/04/13 00:27:02;;;;;;;;;;;11.20;74.90;;;;;;20677333;28;20292;-63
2022/04/13 00:37:03;;;;;;;;;;;11.10;75.00;;;;;;20676787;28;19921;-63
2022/04/13 00:47:07;;;;;;;;;;;11.00;75.20;;;;;;20674626;28;19998;-62
2022/04/13 00:57:09;;;;;;;;;;;10.90;75.20;;;;;;20675733;28;20383;-63
2022/04/13 01:07:11;;;;;;;;;;;11.30;74.10;;;;;;20673170;28;19926;-63
2022/04/13 01:17:12;;;;;;;;;;;10.70;75.00;;;;;;20673446;28;19922;-63
2022/04/13 01:27:14;;;;;;;;;;;10.50;75.60;;;;;;20672408;28;19957;-63
2022/04/13 01:37:16;;;;;;;;;;;11.10;74.30;;;;;;20671019;28;19922;-63
2022/04/13 01:47:20;;;;;;;;;;;10.50;75.40;;;;;;20670551;28;19928;-64
2022/04/13 01:57:25;;;;;;;;;;;10.40;75.40;;;;;;20670201;28;19922;-62
2022/04/13 02:07:30;;;;;;;;;;;10.40;75.60;;;;;;20669561;28;19979;-64
2022/04/13 02:17:32;;;;;;;;;;;10.70;75.00;;;;;;20668363;28;20006;-63
2022/04/13 02:27:35;;;;;;;;;;;10.10;75.80;;;;;;20668350;28;19930;-63
2022/04/13 02:37:39;;;;;;;;;;;10.60;74.80;;;;;;20667659;28;20358;-62
2022/04/13 02:47:41;;;;;;;;;;;10.70;73.80;;;;;;20667034;28;19984;-63
2022/04/13 02:57:43;;;;;;;;;;;10.40;74.50;;;;;;20698064;28;19921;-63
2022/04/13 03:07:45;;;;;;;;;;;9.70;76.20;;;;;;20677670;28;19921;-62
2022/04/13 03:17:47;;;;;;;;;;;9.60;76.70;;;;;;20682703;28;20300;-62
2022/04/13 03:27:49;;;;;;;;;;;9.60;76.30;;;;;;20682790;28;19968;-63
2022/04/13 03:37:52;;;;;;;;;;;9.40;76.30;;;;;;20680478;28;19949;-62
2022/04/13 03:47:54;;;;;;;;;;;9.50;76.60;;;;;;20680905;28;20325;-62
2022/04/13 03:57:56;;;;;;;;;;;9.30;76.60;;;;;;20678876;28;19925;-63
2022/04/13 04:07:58;;;;;;;;;;;9.30;76.80;;;;;;20678733;28;19929;-63
2022/04/13 04:18:01;;;;;;;;;;;9.30;77.20;;;;;;20677383;28;19921;-63
2022/04/13 04:28:03;;;;;;;;;;;9.40;77.00;;;;;;20677063;28;19945;-62
2022/04/13 04:38:06;;;;;;;;;;;9.50;76.90;;;;;;20676795;28;20284;-63
2022/04/13 04:48:09;;;;;;;;;;;9.40;76.60;;;;;;20676060;28;19922;-65
2022/04/13 04:58:11;;;;;;;;;;;9.20;76.50;;;;;;20706026;28;19925;-63
2022/04/13 05:08:16;;;;;;;;;;;9.20;76.90;;;;;;20673988;28;19922;-62
2022/04/13 05:18:17;;;;;;;;;;;9.10;76.80;;;;;;20704340;28;19922;-62
2022/04/13 05:28:19;;;;;;;;;;;9.20;76.80;;;;;;20670800;28;20016;-62
2022/04/13 05:38:21;;;;;;;;;;;9.00;76.60;;;;;;20671274;28;19925;-62
2022/04/13 05:48:25;;;;;;;;;;;9.00;77.20;;;;;;20670704;28;20375;-63
2022/04/13 05:58:27;;;;;;;;;;;9.00;76.60;;;;;;20669688;28;19975;-63
2022/04/13 06:08:31;;;;;;;;;;;;;;;;;;20669644;28;19922;-63
2022/04/13 06:18:33;;;;;;;;;;;;;;;;;;20668657;28;19922;-63
2022/04/13 06:28:36;;;;;;;;;;;;;;;;;;20668000;28;19921;-64
2022/04/13 06:38:40;;;;;;;;;;;;;;;;;;20667061;28;19922;-66
2022/04/13 06:48:43;;;;;;;;;;;;;;;;;;20667643;28;20351;-64
2022/04/13 06:58:46;;;;;;;;;;;;;;;;;;20697674;28;20004;-63
2022/04/13 07:08:48;;;;;;;;;;;;;;;;;;20697486;28;20344;-63
2022/04/13 07:18:51;;;;;;;;;;;;;;;;;;20665027;28;19922;-64
2022/04/13 07:28:54;;;;;;;;;;;;;;;;;;20665090;28;19985;-62
2022/04/13 07:38:56;;;;;;;;;;;;;;;;;;20665884;28;20364;-63
2022/04/13 07:48:58;;;;;;;;;;;;;;;;;;20666400;28;19921;-63
2022/04/13 07:59:00;;;;;;;;;;;;;;;;;;20679384;28;19921;-63
2022/04/13 08:09:03;;;;;;;;;;;;;;;;;;20678638;28;20364;-62
2022/04/13 08:19:05;;;;;;;;;;;;;;;;;;20677143;28;19928;-63
2022/04/13 08:29:07;;;;;;;;;;;;;;;;;;20677041;28;19991;-61
2022/04/13 08:39:13;;;;;;;;;;;;;;;;;;20676021;28;20320;-64
2022/04/13 08:49:15;;;;;;;;;;;;;;;;;;20707705;28;19922;-63
2022/04/13 08:59:17;;;;;;;;;;;;;;;;;;20677124;28;19922;-62
2022/04/13 09:09:20;;;;;;;;;;;;;;;;;;20674102;28;19922;-62
2022/04/13 09:19:22;;;;;;;;;;;;;;;;;;20673484;28;19949;-62
2022/04/13 09:29:24;;;;;;;;;;;;;;;;;;20672960;28;19944;-61
2022/04/13 09:39:26;;;;;;;;;;;;;;;;;;20671992;28;19922;-62
2022/04/13 09:49:28;;;;;;;;;;;;;;;;;;20702475;28;19928;-62
2022/04/13 09:59:31;;;;;;;;;;;;;;;;;;20701770;28;19945;-61
2022/04/13 10:09:33;;;;;;;;;;;;;;;;;;20669385;28;19928;-59
2022/04/13 10:19:35;;;;;;;;;;;;;;;;;;20697081;28;19921;-60
2022/04/13 10:29:37;;;;;;;;;;;;;;;;;;20697404;28;19968;-63
2022/04/13 10:39:40;;;;;;;;;;;;;;;;;;20726195;28;19972;-61
2022/04/13 10:49:43;;;;;;;;;;;;;;;;;;20676917;28;20269;-67
2022/04/13 10:59:45;;;;;;;;;;;;;;;;;;20727405;28;20392;-61
2022/04/13 11:09:46;;;;;;;;;;;;;;;;;;20747124;28;19921;-66
2022/04/13 11:19:48;;;;;;;;;;;;;;;;;;20748348;28;19921;-62
2022/04/13 11:29:50;;;;;;;;;;;;;;;;;;20759232;28;19983;-61
2022/04/13 11:40:18;;;;;;;;;;;19.20;43.60;;;;;;20762043;28;19932;-63
2022/04/13 11:50:33;;;;;;;;;;;18.80;43.40;;;;;;20760360;28;19929;-63
2022/04/13 12:00:38;;;;;;;;;;;18.70;44.20;;;;;;20760176;28;19929;-61
2022/04/13 12:10:44;;;;;;;;;;;18.50;42.90;;;;;;20759567;28;19922;-62
2022/04/13 12:20:47;;;;;;;;;;;18.50;42.90;;;;;;20760262;28;19931;-62
2022/04/13 12:30:56;;;;;;;;;;;18.60;40.90;;;;;;20758514;28;19928;-62
2022/04/13 12:41:06;;;;;;;;;;;18.60;42.00;;;;;;20756226;28;19922;-62
2022/04/13 12:51:07;;;;;;;;;;;19.20;39.40;;;;;;20758126;28;19925;-64
2022/04/13 13:01:11;;;;;;;;;;;19.10;39.20;;;;;;20755621;28;20059;-63
2022/04/13 13:11:12;;;;;;;;;;;19.30;39.70;;;;;;20753310;28;19925;-63
2022/04/13 13:21:14;;;;;;;;;;;19.40;38.60;;;;;;20754314;28;19976;-61
2022/04/13 13:31:17;;;;;;;;;;;19.30;37.10;;;;;;20784992;28;19925;-63
2022/04/13 13:41:21;;;;;;;;;;;20.70;36.50;;;;;;20752684;28;19965;-63
2022/04/13 13:51:23;;;;;;;;;;;20.80;37.30;;;;;;20751834;28;19921;-61
2022/04/13 14:01:26;;;;;;;;;;;19.80;39.70;;;;;;20782328;28;19944;-64
2022/04/13 14:11:31;;;;;;;;;;;;;;;;;;20749604;28;19922;-62
2022/04/13 14:21:34;;;;;;;;;;;20.30;38.80;;;;;;20750491;28;19929;-62
2022/04/13 14:31:36;;;;;;;;;;;19.70;38.80;;;;;;20747497;28;19921;-63
2022/04/13 14:41:37;;;;;;;;;;;19.70;36.90;;;;;;20749638;28;19930;-63
2022/04/13 14:51:39;;;;;;;;;;;19.70;36.90;;;;;;20750673;28;19921;-62
2022/04/13 15:01:40;;;;;;;;;;;20.10;37.50;;;;;;20746406;28;19921;-60
2022/04/13 15:11:42;;;;;;;;;;;20.00;38.10;;;;;;20746034;28;19932;-66
2022/04/13 15:21:44;;;;;;;;;;;19.70;38.80;;;;;;20778393;28;20339;-65
2022/04/13 15:31:46;;;;;;;;;;;19.50;39.50;;;;;;20747294;28;19921;-69
2022/04/13 15:41:47;;;;;;;;;;;19.50;39.60;;;;;;20747343;28;19929;-62
2022/04/13 15:51:48;;;;;;;;;;;19.40;38.40;;;;;;20745459;28;19921;-70
2022/04/13 16:01:50;;;;;;;;;;;19.40;39.10;;;;;;20744203;28;19928;-55
2022/04/13 16:11:52;;;;;;;;;;;19.20;40.00;;;;;;20750209;28;20358;-59
2022/04/13 16:21:54;;;;;;;;;;;19.30;39.10;;;;;;20757483;28;19922;-57
2022/04/13 16:31:56;;;;;;;;;;;19.60;39.40;;;;;;20756796;28;20013;-61
2022/04/13 16:41:58;;;;;;;;;;;19.40;39.40;;;;;;20786957;28;20475;-61
2022/04/13 16:51:59;;;;;;;;;;;19.30;39.60;;;;;;20755415;28;20020;-64
2022/04/13 17:02:01;;;;;;;;;;;19.10;39.90;;;;;;20754586;28;19931;-65
2022/04/13 17:12:03;;;;;;;;;;;18.90;40.30;;;;;;20752826;28;19925;-57
2022/04/13 17:22:04;;;;;;;;;;;18.90;39.70;;;;;;20752826;28;19921;-62
2022/04/13 17:32:07;;;;;;;;;;;18.90;40.60;;;;;;20752234;28;19922;-63
2022/04/13 17:42:08;;;;;;;;;;;18.80;40.70;;;;;;20752317;28;20023;-62
2022/04/13 17:52:10;;;;;;;;;;;18.70;41.10;;;;;;20752244;28;19971;-63
2022/04/13 18:02:12;;;;;;;;;;;18.50;41.00;;;;;;20751419;28;19922;-63
2022/04/13 18:12:13;;;;;;;;;;;18.30;41.60;;;;;;20751065;28;20344;-61
2022/04/13 18:22:15;;;;;;;;;;;18.10;41.90;;;;;;20749292;28;19921;-63
2022/04/13 18:32:17;;;;;;;;;;;18.00;42.10;;;;;;20748138;28;19922;-63
2022/04/13 18:42:19;;;;;;;;;;;18.00;42.50;;;;;;20748648;28;19964;-63
2022/04/13 18:52:21;;;;;;;;;;;17.80;43.20;;;;;;20747466;28;19925;-62
2022/04/13 19:02:23;;;;;;;;;;;17.70;43.80;;;;;;20747316;28;19925;-64
2022/04/13 19:12:24;;;;;;;;;;;17.50;44.40;;;;;;20747884;28;19987;-63
2022/04/13 19:22:26;;;;;;;;;;;17.40;44.50;;;;;;20747841;28;19955;-62
2022/04/13 19:32:28;;;;;;;;;;;17.20;44.70;;;;;;20745841;28;20000;-64
2022/04/13 19:42:29;;;;;;;;;;;17.20;45.20;;;;;;20745984;28;19921;-64
2022/04/13 19:52:31;;;;;;;;;;;17.20;45.50;;;;;;20759988;28;20328;-62
2022/04/13 20:02:33;;;;;;;;;;;17.00;46.80;;;;;;20761296;28;19921;-64
2022/04/13 20:12:38;;;;;;;;;;;16.90;47.60;;;;;;20760128;28;20000;-62
2022/04/13 20:22:40;;;;;;;;;;;16.80;48.30;;;;;;20760254;28;19929;-63
2022/04/13 20:32:42;;;;;;;;;;;16.70;48.70;;;;;;20760044;28;19976;-62
2022/04/13 20:42:44;;;;;;;;;;;16.60;49.50;;;;;;20757386;28;20343;-62
2022/04/13 20:52:45;;;;;;;;;;;16.40;49.90;;;;;;20757909;28;19921;-62
2022/04/13 21:02:47;;;;;;;;;;;16.20;50.40;;;;;;20756113;28;19927;-62
2022/04/13 21:12:50;;;;;;;;;;;16.10;50.60;;;;;;20756106;28;19922;-63
2022/04/13 21:22:52;;;;;;;;;;;15.90;51.20;;;;;;20755222;28;19951;-61
2022/04/13 21:32:54;;;;;;;;;;;15.70;51.80;;;;;;20754182;28;19928;-63
2022/04/13 21:42:56;;;;;;;;;;;15.50;52.40;;;;;;20753439;28;20028;-64
2022/04/13 21:52:58;;;;;;;;;;;15.40;52.50;;;;;;20752581;28;19928;-64
2022/04/13 22:02:59;;;;;;;;;;;15.20;52.90;;;;;;20751684;28;19921;-64
2022/04/13 22:13:01;;;;;;;;;;;15.10;53.20;;;;;;20750889;28;19921;-63
2022/04/13 22:23:04;;;;;;;;;;;15.10;53.60;;;;;;20751602;28;20374;-63
2022/04/13 22:33:06;;;;;;;;;;;15.00;53.60;;;;;;20749181;28;19921;-63
2022/04/13 22:43:08;;;;;;;;;;;14.90;53.90;;;;;;20749094;28;19921;-63
2022/04/13 22:53:10;;;;;;;;;;;14.80;53.70;;;;;;20749125;28;19924;-63
2022/04/13 23:03:11;;;;;;;;;;;14.70;54.20;;;;;;20749828;28;20359;-63
2022/04/13 23:13:14;;;;;;;;;;;14.70;54.10;;;;;;20749316;28;19925;-65
2022/04/13 23:23:16;;;;;;;;;;;14.50;54.10;;;;;;20756878;28;20287;-64
2022/04/13 23:33:17;;;;;;;;;;;14.50;54.50;;;;;;20765227;28;19928;-62
2022/04/13 23:43:18;;;;;;;;;;;14.40;54.60;;;;;;20765006;28;19968;-63
2022/04/13 23:53:20;;;;;;;;;;;14.40;54.60;;;;;;20764689;28;20298;-63
